createdAt,value
2023-04-25T00:00:10.067Z,95441.22
2023-04-25T00:01:14.583Z,95438.53
2023-04-25T00:02:16.552Z,95437.38
2023-04-25T00:03:22.554Z,95440.63
2023-04-25T00:04:25.044Z,95437.72
2023-04-25T00:05:30.902Z,95438.50
2023-04-25T00:06:33.043Z,95436.75
2023-04-25T00:07:38.078Z,95435.66
2023-04-25T00:08:40.009Z,95439.91
2023-04-25T00:09:45.648Z,95439.00
2023-04-25T00:10:50.220Z,95441.59
2023-04-25T00:11:54.670Z,95440.53
2023-04-25T00:12:56.839Z,95443.69
2023-04-25T00:14:03.109Z,95440.97
2023-04-25T00:15:05.539Z,95440.16
2023-04-25T00:16:10.177Z,95441.88
2023-04-25T00:17:12.499Z,95437.56
2023-04-25T00:18:16.875Z,95447.47
2023-04-25T00:19:18.768Z,95440.97
2023-04-25T00:20:24.597Z,95439.25
2023-04-25T00:21:26.740Z,95445.09
2023-04-25T00:22:31.206Z,95446.34
2023-04-25T00:23:33.040Z,95448.00
2023-04-25T00:24:37.432Z,95446.06
2023-04-25T00:25:39.399Z,95439.13
2023-04-25T00:26:46.602Z,95446.63
2023-04-25T00:27:48.533Z,95437.13
2023-04-25T00:28:52.993Z,95436.88
2023-04-25T00:29:54.849Z,95436.72
2023-04-25T00:30:59.288Z,95438.53
2023-04-25T00:32:01.846Z,95441.75
2023-04-25T00:33:06.575Z,95437.56
2023-04-25T00:34:09.313Z,95434.84
2023-04-25T00:35:13.867Z,95438.38
2023-04-25T00:36:16.050Z,95434.16
2023-04-25T00:37:21.044Z,95440.91
2023-04-25T00:38:22.988Z,95444.38
2023-04-25T00:39:27.404Z,95445.19
2023-04-25T00:40:29.617Z,95442.03
2023-04-25T00:42:53.739Z,95437.44
2023-04-25T00:43:58.668Z,95430.75
2023-04-25T00:45:00.765Z,95438.47
2023-04-25T00:46:05.230Z,95436.06
2023-04-25T00:47:08.289Z,95431.16
2023-04-25T00:48:12.835Z,95428.66
2023-04-25T00:49:16.692Z,95435.22
2023-04-25T00:50:21.094Z,95426.56
2023-04-25T00:51:22.980Z,95420.75
2023-04-25T00:52:27.587Z,95419.19
2023-04-25T00:53:29.554Z,95416.69
2023-04-25T00:54:34.366Z,95408.19
2023-04-25T00:55:37.305Z,95409.38
2023-04-25T00:56:41.891Z,95401.22
2023-04-25T00:57:44.148Z,95404.22
2023-04-25T00:58:51.799Z,95409.69
2023-04-25T00:59:54.225Z,95401.84
2023-04-25T01:01:32.065Z,95400.19
2023-04-25T01:02:37.221Z,95404.75
2023-04-25T01:03:42.489Z,95407.53
2023-04-25T01:04:47.062Z,95409.19
2023-04-25T01:05:49.131Z,95405.19
2023-04-25T01:06:53.629Z,95410.63
2023-04-25T01:07:55.928Z,95414.88
2023-04-25T01:09:00.374Z,95411.25
2023-04-25T01:10:02.328Z,95408.56
2023-04-25T01:11:07.157Z,95407.31
2023-04-25T01:12:09.004Z,95414.38
2023-04-25T01:13:13.551Z,95416.03
2023-04-25T01:14:18.143Z,95417.97
2023-04-25T01:15:22.581Z,95404.97
2023-04-25T01:16:25.142Z,95409.50
2023-04-25T01:17:30.360Z,95412.75
2023-04-25T01:18:32.317Z,95411.84
2023-04-25T01:19:37.068Z,95402.94
2023-04-25T01:20:39.833Z,95408.34
2023-04-25T01:21:46.931Z,95407.56
2023-04-25T01:22:48.790Z,95403.44
2023-04-25T01:23:53.718Z,95401.97
2023-04-25T01:24:55.717Z,95404.06
2023-04-25T01:26:00.184Z,95401.09
2023-04-25T01:27:03.412Z,95399.25
2023-04-25T01:28:08.931Z,95396.66
2023-04-25T01:29:11.008Z,95399.31
2023-04-25T01:30:15.590Z,95397.88
2023-04-25T01:31:18.160Z,95390.56
2023-04-25T01:32:22.714Z,95398.50
2023-04-25T01:33:24.590Z,95403.16
2023-04-25T01:34:29.286Z,95397.97
2023-04-25T01:35:31.306Z,95405.94
2023-04-25T01:36:36.234Z,95395.53
2023-04-25T01:37:40.912Z,95404.31
2023-04-25T01:38:47.514Z,95399.31
2023-04-25T01:39:49.962Z,95407.97
2023-04-25T01:40:54.955Z,95401.13
2023-04-25T01:41:57.657Z,95401.25
2023-04-25T01:43:02.187Z,95404.59
2023-04-25T01:44:04.927Z,95407.06
2023-04-25T01:45:10.386Z,95401.13
2023-04-25T01:46:14.980Z,95401.34
2023-04-25T01:47:16.792Z,95398.03
2023-04-25T01:48:21.270Z,95399.84
2023-04-25T01:49:23.189Z,95399.84
2023-04-25T01:52:13.611Z,95396.66
2023-04-25T01:53:18.157Z,95399.09
2023-04-25T01:54:22.849Z,95397.19
2023-04-25T01:55:24.629Z,95389.19
2023-04-25T01:56:29.508Z,95399.91
2023-04-25T01:57:31.634Z,95388.25
2023-04-25T01:59:03.254Z,95388.97
2023-04-25T02:01:36.409Z,95383.75
2023-04-25T02:02:38.420Z,95381.03
2023-04-25T02:03:43.086Z,95385.06
2023-04-25T02:04:45.106Z,95389.22
2023-04-25T02:05:49.599Z,95385.56
2023-04-25T02:06:51.439Z,95382.75
2023-04-25T02:07:56.286Z,95379.44
2023-04-25T02:09:00.738Z,95382.88
2023-04-25T02:10:05.377Z,95376.75
2023-04-25T02:11:07.314Z,95383.63
2023-04-25T02:12:12.845Z,95378.50
2023-04-25T02:13:14.681Z,95382.63
2023-04-25T02:14:19.162Z,95380.19
2023-04-25T02:15:21.053Z,95376.66
2023-04-25T02:16:26.579Z,95378.31
2023-04-25T02:17:28.502Z,95379.00
2023-04-25T02:18:33.274Z,95386.59
2023-04-25T02:19:35.606Z,95378.69
2023-04-25T02:20:40.240Z,95382.91
2023-04-25T02:21:42.069Z,95382.78
2023-04-25T02:22:46.658Z,95383.63
2023-04-25T02:23:50.302Z,95378.50
2023-04-25T02:24:57.790Z,95375.97
2023-04-25T02:25:59.857Z,95377.53
2023-04-25T02:27:04.382Z,95374.69
2023-04-25T02:28:06.300Z,95380.16
2023-04-25T02:29:10.847Z,95375.84
2023-04-25T02:30:13.065Z,95381.94
2023-04-25T02:31:17.583Z,95371.03
2023-04-25T02:32:19.532Z,95373.72
2023-04-25T02:33:24.014Z,95374.81
2023-04-25T02:34:26.021Z,95375.78
2023-04-25T02:35:30.456Z,95378.56
2023-04-25T02:36:35.349Z,95374.44
2023-04-25T02:37:40.435Z,95375.41
2023-04-25T02:38:42.489Z,95374.56
2023-04-25T02:39:47.017Z,95379.94
2023-04-25T02:40:51.550Z,95372.97
2023-04-25T02:41:56.453Z,95375.78
2023-04-25T02:42:58.386Z,95371.34
2023-04-25T02:44:02.820Z,95370.53
2023-04-25T02:45:05.060Z,95369.66
2023-04-25T02:46:09.866Z,95368.03
2023-04-25T02:47:11.745Z,95367.00
2023-04-25T02:48:16.253Z,95366.44
2023-04-25T02:49:18.109Z,95364.13
2023-04-25T02:50:22.511Z,95368.88
2023-04-25T02:51:24.351Z,95373.31
2023-04-25T02:52:28.777Z,95374.88
2023-04-25T02:53:30.629Z,95370.78
2023-04-25T02:54:35.045Z,95365.59
2023-04-25T02:55:36.849Z,95366.28
2023-04-25T02:56:43.877Z,95372.84
2023-04-25T02:57:45.700Z,95371.88
2023-04-25T02:58:50.092Z,95377.75
2023-04-25T02:59:51.976Z,95366.94
2023-04-25T03:00:56.653Z,95366.78
2023-04-25T03:01:58.580Z,95372.13
2023-04-25T03:03:03.162Z,95373.16
2023-04-25T03:04:05.632Z,95366.59
2023-04-25T03:05:10.351Z,95372.84
2023-04-25T03:06:12.197Z,95368.28
2023-04-25T03:07:17.265Z,95367.47
2023-04-25T03:08:19.465Z,95365.00
2023-04-25T03:09:23.968Z,95364.25
2023-04-25T03:10:28.499Z,95362.69
2023-04-25T03:11:30.436Z,95361.16
2023-04-25T03:12:37.422Z,95364.69
2023-04-25T03:13:54.470Z,95367.56
2023-04-25T03:14:58.865Z,95371.81
2023-04-25T03:16:00.783Z,95367.44
2023-04-25T03:17:05.279Z,95367.44
2023-04-25T03:18:07.158Z,95360.69
2023-04-25T03:19:11.821Z,95365.13
2023-04-25T03:20:13.645Z,95368.59
2023-04-25T03:21:18.016Z,95367.03
2023-04-25T03:22:19.829Z,95365.44
2023-04-25T03:23:24.611Z,95364.59
2023-04-25T03:25:02.324Z,95365.38
2023-04-25T03:26:06.806Z,95365.78
2023-04-25T03:27:08.747Z,95366.44
2023-04-25T03:28:15.818Z,95368.78
2023-04-25T03:29:17.666Z,95365.19
2023-04-25T03:30:22.322Z,95364.09
2023-04-25T03:31:24.202Z,95367.31
2023-04-25T03:32:28.669Z,95360.50
2023-04-25T03:33:30.960Z,95359.63
2023-04-25T03:34:35.373Z,95358.66
2023-04-25T03:35:37.221Z,95363.56
2023-04-25T03:36:41.928Z,95366.78
2023-04-25T03:37:46.709Z,95360.63
2023-04-25T03:38:51.830Z,95355.41
2023-04-25T03:39:53.660Z,95351.69
2023-04-25T03:40:58.071Z,95357.66
2023-04-25T03:41:59.909Z,95359.31
2023-04-25T03:43:04.306Z,95359.16
2023-04-25T03:44:09.123Z,95364.31
2023-04-25T03:45:13.659Z,95368.63
2023-04-25T03:46:15.510Z,95359.25
2023-04-25T03:47:20.143Z,95360.88
2023-04-25T03:48:22.765Z,95362.38
2023-04-25T03:49:27.336Z,95362.38
2023-04-25T03:50:29.149Z,95358.91
2023-04-25T03:51:33.521Z,95358.78
2023-04-25T03:52:35.358Z,95357.09
2023-04-25T03:53:39.791Z,95360.44
2023-04-25T03:54:41.708Z,95358.66
2023-04-25T03:55:46.188Z,95358.50
2023-04-25T03:56:48.070Z,95356.09
2023-04-25T03:57:52.449Z,95357.88
2023-04-25T03:58:54.405Z,95362.25
2023-04-25T04:00:01.456Z,95353.66
2023-04-25T04:01:04.359Z,95356.22
2023-04-25T04:02:09.218Z,95356.97
2023-04-25T04:04:16.942Z,95351.00
2023-04-25T04:05:19.156Z,95354.53
2023-04-25T04:06:23.747Z,95350.31
2023-04-25T04:07:25.580Z,95353.84
2023-04-25T04:08:29.983Z,95352.59
2023-04-25T04:09:31.824Z,95355.94
2023-04-25T04:10:36.314Z,95359.22
2023-04-25T04:11:39.542Z,95360.03
2023-04-25T04:12:44.023Z,95356.69
2023-04-25T04:13:45.993Z,95363.44
2023-04-25T04:14:50.392Z,95360.94
2023-04-25T04:15:54.967Z,95353.09
2023-04-25T04:16:59.408Z,95360.66
2023-04-25T04:18:03.969Z,95357.31
2023-04-25T04:19:08.448Z,95365.75
2023-04-25T04:24:34.879Z,95364.66
2023-04-25T04:25:39.415Z,95369.81
2023-04-25T04:26:41.283Z,95364.72
2023-04-25T04:27:45.977Z,95363.66
2023-04-25T04:28:47.875Z,95373.13
2023-04-25T04:29:53.563Z,95369.56
2023-04-25T04:30:58.859Z,95366.16
2023-04-25T04:32:04.336Z,95374.66
2023-04-25T04:33:06.184Z,95371.94
2023-04-25T04:34:10.691Z,95372.59
2023-04-25T04:35:12.500Z,95369.03
2023-04-25T04:36:20.880Z,95374.25
2023-04-25T04:37:23.927Z,95370.63
2023-04-25T04:38:28.347Z,95365.59
2023-04-25T04:39:30.170Z,95364.72
2023-04-25T04:40:36.031Z,95367.16
2023-04-25T04:41:37.954Z,95372.16
2023-04-25T04:42:42.433Z,95369.63
2023-04-25T04:43:44.677Z,95362.00
2023-04-25T04:44:49.202Z,95367.28
2023-04-25T04:45:51.317Z,95365.59
2023-04-25T04:46:59.013Z,95367.28
2023-04-25T04:48:00.941Z,95365.50
2023-04-25T04:49:05.476Z,95369.72
2023-04-25T04:50:09.730Z,95360.34
2023-04-25T04:51:14.194Z,95374.72
2023-04-25T04:52:16.113Z,95365.22
2023-04-25T04:53:20.492Z,95370.34
2023-04-25T04:54:22.320Z,95376.34
2023-04-25T04:55:26.723Z,95371.88
2023-04-25T04:56:29.378Z,95377.03
2023-04-25T04:57:34.158Z,95369.25
2023-04-25T04:58:37.708Z,95366.72
2023-04-25T04:59:42.117Z,95379.44
2023-04-25T05:00:44.506Z,95377.03
2023-04-25T05:01:49.176Z,95378.97
2023-04-25T05:02:53.717Z,95380.50
2023-04-25T05:04:02.006Z,95381.19
2023-04-25T05:05:04.513Z,95376.00
2023-04-25T05:06:10.002Z,95383.72
2023-04-25T05:07:11.830Z,95383.72
2023-04-25T05:08:16.251Z,95381.88
2023-04-25T05:09:18.101Z,95377.50
2023-04-25T05:10:23.335Z,95380.09
2023-04-25T05:11:26.326Z,95380.22
2023-04-25T05:12:31.606Z,95381.75
2023-04-25T05:13:33.458Z,95373.97
2023-04-25T05:14:37.865Z,95383.13
2023-04-25T05:15:39.737Z,95386.34
2023-04-25T05:16:44.252Z,95380.13
2023-04-25T05:17:46.564Z,95376.66
2023-04-25T05:18:53.740Z,95379.25
2023-04-25T05:19:56.097Z,95386.97
2023-04-25T05:21:00.541Z,95390.28
2023-04-25T05:22:02.608Z,95382.69
2023-04-25T05:23:07.419Z,95383.41
2023-04-25T05:24:09.294Z,95389.25
2023-04-25T05:25:13.934Z,95389.44
2023-04-25T05:26:15.791Z,95381.44
2023-04-25T05:27:20.583Z,95384.88
2023-04-25T05:28:25.017Z,95378.78
2023-04-25T05:29:26.840Z,95377.34
2023-04-25T05:30:31.550Z,95380.94
2023-04-25T05:31:33.462Z,95375.69
2023-04-25T05:32:38.011Z,95376.53
2023-04-25T05:35:10.148Z,95377.41
2023-04-25T05:36:43.326Z,95377.41
2023-04-25T05:37:47.786Z,95382.44
2023-04-25T05:38:49.645Z,95394.06
2023-04-25T05:39:54.435Z,95383.66
2023-04-25T05:40:56.497Z,95385.59
2023-04-25T05:42:00.936Z,95382.28
2023-04-25T05:43:02.841Z,95390.84
2023-04-25T05:44:07.341Z,95392.16
2023-04-25T05:45:09.636Z,95386.03
2023-04-25T05:46:14.137Z,95388.09
2023-04-25T05:47:16.440Z,95391.72
2023-04-25T05:48:20.839Z,95388.50
2023-04-25T05:49:27.154Z,95383.91
2023-04-25T05:50:34.625Z,95391.72
2023-04-25T05:51:36.495Z,95391.34
2023-04-25T05:52:41.085Z,95396.06
2023-04-25T05:53:42.969Z,95396.63
2023-04-25T05:54:47.408Z,95396.66
2023-04-25T05:55:49.295Z,95394.56
2023-04-25T05:56:53.881Z,95398.13
2023-04-25T05:57:55.777Z,95400.25
2023-04-25T05:59:00.883Z,95397.38
2023-04-25T06:00:02.961Z,95407.66
2023-04-25T06:01:07.595Z,95396.78
2023-04-25T06:02:09.548Z,95398.69
2023-04-25T06:03:17.211Z,95396.50
2023-04-25T06:04:21.781Z,95392.97
2023-04-25T06:05:26.732Z,95396.50
2023-04-25T06:06:31.409Z,95396.31
2023-04-25T06:07:35.808Z,95391.00
2023-04-25T06:08:39.054Z,95394.00
2023-04-25T06:09:43.547Z,95399.53
2023-04-25T06:10:45.483Z,95396.16
2023-04-25T06:11:49.954Z,95399.16
2023-04-25T06:12:51.810Z,95391.63
2023-04-25T06:13:56.441Z,95394.97
2023-04-25T06:14:58.312Z,95396.94
2023-04-25T06:16:02.816Z,95395.94
2023-04-25T06:17:09.523Z,95395.78
2023-04-25T06:18:14.011Z,95393.44
2023-04-25T06:19:15.931Z,95396.47
2023-04-25T06:20:24.267Z,95390.25
2023-04-25T06:21:26.778Z,95387.97
2023-04-25T06:22:33.829Z,95394.00
2023-04-25T06:23:36.105Z,95380.88
2023-04-25T06:24:40.506Z,95377.97
2023-04-25T06:25:42.349Z,95377.97
2023-04-25T06:26:48.725Z,95387.13
2023-04-25T06:27:53.205Z,95388.25
2023-04-25T06:28:57.680Z,95389.34
2023-04-25T06:29:59.513Z,95385.81
2023-04-25T06:31:04.439Z,95392.34
2023-04-25T06:32:09.116Z,95395.66
2023-04-25T06:33:11.244Z,95404.63
2023-04-25T06:34:16.387Z,95385.84
2023-04-25T06:35:18.219Z,95386.97
2023-04-25T06:36:26.145Z,95401.09
2023-04-25T06:37:30.726Z,95390.44
2023-04-25T06:38:35.998Z,95385.94
2023-04-25T06:39:40.569Z,95389.22
2023-04-25T06:40:45.918Z,95382.63
2023-04-25T06:41:50.332Z,95390.91
2023-04-25T06:42:52.160Z,95381.97
2023-04-25T06:43:56.568Z,95395.13
2023-04-25T06:44:58.403Z,95395.38
2023-04-25T06:46:02.948Z,95392.31
2023-04-25T06:47:04.827Z,95392.16
2023-04-25T06:48:09.485Z,95388.63
2023-04-25T06:49:13.986Z,95384.81
2023-04-25T06:50:15.823Z,95395.66
2023-04-25T06:51:23.569Z,95396.97
2023-04-25T06:52:28.672Z,95398.19
2023-04-25T06:53:35.740Z,95398.19
2023-04-25T06:54:37.573Z,95392.75
2023-04-25T06:55:42.045Z,95402.91
2023-04-25T06:56:43.866Z,95397.19
2023-04-25T06:57:48.281Z,95403.63
2023-04-25T06:58:50.397Z,95399.00
2023-04-25T06:59:55.004Z,95402.03
2023-04-25T07:00:56.895Z,95399.00
2023-04-25T07:02:01.328Z,95391.00
2023-04-25T07:03:03.468Z,95402.75
2023-04-25T07:04:08.190Z,95397.91
2023-04-25T07:05:10.653Z,95390.84
2023-04-25T07:06:15.113Z,95390.69
2023-04-25T07:07:19.593Z,95387.88
2023-04-25T07:08:24.072Z,95385.47
2023-04-25T07:09:28.513Z,95382.19
2023-04-25T07:10:32.929Z,95385.53
2023-04-25T07:11:34.772Z,95384.88
2023-04-25T07:12:39.260Z,95377.69
2023-04-25T07:13:43.694Z,95380.34
2023-04-25T07:14:48.203Z,95376.00
2023-04-25T07:15:50.044Z,95372.41
2023-04-25T07:16:54.787Z,95384.06
2023-04-25T07:17:56.945Z,95383.84
2023-04-25T07:19:01.442Z,95379.94
2023-04-25T07:20:05.018Z,95377.50
2023-04-25T07:21:09.541Z,95379.09
2023-04-25T07:22:11.406Z,95386.84
2023-04-25T07:23:15.987Z,95379.84
2023-04-25T07:24:17.852Z,95382.66
2023-04-25T07:25:24.917Z,95382.56
2023-04-25T07:26:29.344Z,95375.59
2023-04-25T07:27:31.409Z,95378.47
2023-04-25T07:28:35.885Z,95377.44
2023-04-25T07:29:38.590Z,95379.06
2023-04-25T07:30:46.225Z,95379.69
2023-04-25T07:31:48.140Z,95375.31
2023-04-25T07:32:52.825Z,95362.72
2023-04-25T07:33:54.693Z,95371.69
2023-04-25T07:34:59.184Z,95369.84
2023-04-25T07:36:03.809Z,95374.53
2023-04-25T07:37:08.342Z,95370.88
2023-04-25T07:38:11.523Z,95374.66
2023-04-25T07:39:38.423Z,95372.22
2023-04-25T07:40:42.920Z,95375.28
2023-04-25T07:41:47.332Z,95379.66
2023-04-25T07:42:49.232Z,95385.47
2023-04-25T07:43:53.664Z,95387.34
2023-04-25T07:44:55.575Z,95392.47
2023-04-25T07:46:00.594Z,95387.69
2023-04-25T07:47:04.404Z,95384.09
2023-04-25T07:48:09.080Z,95387.94
2023-04-25T07:49:11.562Z,95397.03
2023-04-25T07:50:16.085Z,95393.38
2023-04-25T07:51:18.234Z,95392.41
2023-04-25T07:52:22.739Z,95394.91
2023-04-25T07:53:24.539Z,95386.75
2023-04-25T07:54:29.084Z,95397.66
2023-04-25T07:55:30.959Z,95395.34
2023-04-25T07:56:48.955Z,95393.94
2023-04-25T08:01:03.359Z,95380.28
2023-04-25T08:02:05.237Z,95378.41
2023-04-25T08:03:09.798Z,95381.75
2023-04-25T08:04:14.774Z,95391.84
2023-04-25T08:05:22.726Z,95381.59
2023-04-25T08:06:27.500Z,95383.34
2023-04-25T08:07:29.558Z,95390.81
2023-04-25T08:08:33.973Z,95400.66
2023-04-25T08:09:38.430Z,95407.13
2023-04-25T08:10:40.402Z,95412.13
2023-04-25T08:11:47.444Z,95413.75
2023-04-25T08:12:49.525Z,95412.44
2023-04-25T08:13:53.892Z,95414.19
2023-04-25T08:14:55.740Z,95406.56
2023-04-25T08:16:00.250Z,95403.19
2023-04-25T08:17:04.884Z,95411.66
2023-04-25T08:18:06.776Z,95409.09
2023-04-25T08:19:11.515Z,95401.41
2023-04-25T08:20:13.606Z,95406.38
2023-04-25T08:21:18.039Z,95409.53
2023-04-25T08:22:20.226Z,95404.53
2023-04-25T08:23:24.674Z,95403.31
2023-04-25T08:24:26.541Z,95408.72
2023-04-25T08:25:31.196Z,95421.28
2023-04-25T08:26:36.068Z,95415.38
2023-04-25T08:27:43.088Z,95414.63
2023-04-25T08:28:47.570Z,95422.00
2023-04-25T08:29:52.172Z,95422.72
2023-04-25T08:30:54.211Z,95426.75
2023-04-25T08:31:58.641Z,95421.28
2023-04-25T08:33:00.872Z,95420.13
2023-04-25T08:34:05.463Z,95422.06
2023-04-25T08:35:08.106Z,95421.19
2023-04-25T08:36:12.628Z,95424.88
2023-04-25T08:37:17.325Z,95422.94
2023-04-25T08:38:19.738Z,95431.66
2023-04-25T08:39:24.497Z,95425.88
2023-04-25T08:40:31.241Z,95420.66
2023-04-25T08:41:35.694Z,95427.34
2023-04-25T08:42:41.428Z,95423.81
2023-04-25T08:43:46.341Z,95419.34
2023-04-25T08:44:51.415Z,95433.06
2023-04-25T08:45:56.873Z,95433.16
2023-04-25T08:46:58.899Z,95428.72
2023-04-25T08:48:04.773Z,95440.97
2023-04-25T08:49:06.683Z,95437.00
2023-04-25T08:51:51.741Z,95441.38
2023-04-25T08:52:57.430Z,95445.63
2023-04-25T08:54:09.003Z,95449.75
2023-04-25T08:55:17.940Z,95451.50
2023-04-25T08:56:24.429Z,95465.03
2023-04-25T08:57:29.000Z,95464.41
2023-04-25T08:58:34.340Z,95466.69
2023-04-25T08:59:40.218Z,95472.31
2023-04-25T09:00:44.689Z,95459.38
2023-04-25T09:01:46.640Z,95457.13
2023-04-25T09:02:51.602Z,95449.06
2023-04-25T09:03:53.599Z,95451.53
2023-04-25T09:04:58.660Z,95461.72
2023-04-25T09:06:00.832Z,95450.38
2023-04-25T09:07:05.259Z,95449.88
2023-04-25T09:08:09.752Z,95460.41
2023-04-25T09:09:15.019Z,95471.09
2023-04-25T09:10:19.828Z,95458.47
2023-04-25T09:11:23.521Z,95452.78
2023-04-25T09:12:28.633Z,95456.38
2023-04-25T09:13:33.289Z,95463.63
2023-04-25T09:14:37.700Z,95459.66
2023-04-25T09:15:55.224Z,95464.56
2023-04-25T09:17:01.401Z,95465.47
2023-04-25T09:18:06.076Z,95475.56
2023-04-25T09:19:08.232Z,95471.25
2023-04-25T09:20:13.753Z,95471.44
2023-04-25T09:21:18.177Z,95476.94
2023-04-25T09:22:24.142Z,95488.91
2023-04-25T09:23:28.632Z,95483.47
2023-04-25T09:24:31.948Z,95482.69
2023-04-25T09:25:40.460Z,95488.50
2023-04-25T09:26:42.712Z,95504.25
2023-04-25T09:27:57.223Z,95494.53
2023-04-25T09:29:09.083Z,95507.94
2023-04-25T09:30:11.651Z,95496.19
2023-04-25T09:31:25.671Z,95496.31
2023-04-25T09:32:27.822Z,95498.13
2023-04-25T09:33:33.946Z,95503.56
2023-04-25T09:34:39.949Z,95500.72
2023-04-25T09:35:44.929Z,95495.69
2023-04-25T09:36:47.602Z,95500.03
2023-04-25T09:37:52.101Z,95504.94
2023-04-25T09:38:54.764Z,95505.97
2023-04-25T09:40:00.389Z,95497.91
2023-04-25T09:41:02.312Z,95507.09
2023-04-25T09:42:06.960Z,95510.75
2023-04-25T09:43:15.137Z,95512.78
2023-04-25T09:44:27.004Z,95513.69
2023-04-25T09:45:33.330Z,95512.41
2023-04-25T09:46:37.960Z,95515.94
2023-04-25T09:47:45.126Z,95507.78
2023-04-25T09:48:49.686Z,95521.44
2023-04-25T09:49:54.962Z,95515.94
2023-04-25T09:51:09.502Z,95510.28
2023-04-25T09:53:53.099Z,95507.56
2023-04-25T09:54:55.300Z,95512.03
2023-04-25T09:56:00.938Z,95508.44
2023-04-25T09:57:10.729Z,95506.81
2023-04-25T09:58:15.483Z,95506.63
2023-04-25T09:59:17.499Z,95477.75
2023-04-25T10:00:22.956Z,95474.84
2023-04-25T10:01:25.807Z,95479.19
2023-04-25T10:02:32.948Z,95479.44
2023-04-25T10:03:36.300Z,95479.84
2023-04-25T10:04:41.782Z,95475.84
2023-04-25T10:05:44.549Z,95468.31
2023-04-25T10:06:50.438Z,95474.47
2023-04-25T10:07:55.747Z,95462.59
2023-04-25T10:08:57.834Z,95468.69
2023-04-25T10:10:04.844Z,95464.94
2023-04-25T10:11:10.269Z,95465.16
2023-04-25T10:12:14.926Z,95454.50
2023-04-25T10:13:19.704Z,95467.28
2023-04-25T10:14:21.987Z,95467.16
2023-04-25T10:15:27.067Z,95461.09
2023-04-25T10:16:30.027Z,95467.91
2023-04-25T10:17:37.910Z,95468.59
2023-04-25T10:18:42.384Z,95472.81
2023-04-25T10:19:44.499Z,95476.53
2023-04-25T10:20:48.992Z,95482.03
2023-04-25T10:21:55.171Z,95491.03
2023-04-25T10:23:02.970Z,95483.78
2023-04-25T10:24:05.540Z,95511.22
2023-04-25T10:25:10.524Z,95538.41
2023-04-25T10:26:14.026Z,95544.28
2023-04-25T10:27:19.375Z,95550.97
2023-04-25T10:28:24.438Z,95550.97
2023-04-25T10:29:26.851Z,95552.44
2023-04-25T10:30:31.423Z,95554.66
2023-04-25T10:31:33.590Z,95556.06
2023-04-25T10:32:40.966Z,95555.97
2023-04-25T10:35:32.582Z,95556.03
2023-04-25T10:36:35.155Z,95556.09
2023-04-25T10:37:40.767Z,95560.63
2023-04-25T10:38:46.525Z,95564.31
2023-04-25T10:39:48.384Z,95562.13
2023-04-25T10:41:06.634Z,95557.78
2023-04-25T10:42:11.718Z,95566.00
2023-04-25T10:43:28.598Z,95568.06
2023-04-25T10:44:33.569Z,95565.16
2023-04-25T10:45:54.554Z,95565.38
2023-04-25T10:46:59.627Z,95566.31
2023-04-25T10:48:04.385Z,95565.03
2023-04-25T10:49:08.920Z,95572.25
2023-04-25T10:50:11.415Z,95573.03
2023-04-25T10:51:19.585Z,95567.56
2023-04-25T10:52:29.418Z,95573.13
2023-04-25T10:53:32.305Z,95576.59
2023-04-25T10:54:36.733Z,95564.53
2023-04-25T10:55:53.166Z,95577.31
2023-04-25T10:56:57.633Z,95580.94
2023-04-25T10:57:59.564Z,95580.59
2023-04-25T10:59:07.978Z,95582.31
2023-04-25T11:00:14.724Z,95586.53
2023-04-25T11:01:20.604Z,95585.25
2023-04-25T11:02:25.318Z,95589.41
2023-04-25T11:03:31.594Z,95594.94
2023-04-25T11:04:37.867Z,95596.16
2023-04-25T11:05:57.450Z,95598.94
2023-04-25T11:07:07.033Z,95603.88
2023-04-25T11:08:15.349Z,95609.44
2023-04-25T11:09:17.156Z,95613.63
2023-04-25T11:10:21.990Z,95609.25
2023-04-25T11:11:23.812Z,95614.44
2023-04-25T11:12:28.768Z,95613.91
2023-04-25T11:13:30.992Z,95625.94
2023-04-25T11:14:35.522Z,95619.59
2023-04-25T11:15:41.203Z,95636.78
2023-04-25T11:17:07.339Z,95629.84
2023-04-25T11:18:11.842Z,95631.78
2023-04-25T11:19:16.257Z,95637.94
2023-04-25T11:20:20.686Z,95624.91
2023-04-25T11:21:22.559Z,95634.22
2023-04-25T11:22:27.215Z,95629.22
2023-04-25T11:23:31.670Z,95642.13
2023-04-25T11:24:34.127Z,95639.56
2023-04-25T11:25:39.093Z,95639.63
2023-04-25T11:26:42.749Z,95637.34
2023-04-25T11:27:53.910Z,95642.00
2023-04-25T11:28:58.730Z,95641.25
2023-04-25T11:30:03.188Z,95644.41
2023-04-25T11:31:08.341Z,95643.81
2023-04-25T11:32:10.326Z,95645.59
2023-04-25T11:33:14.806Z,95641.06
2023-04-25T11:34:20.988Z,95641.84
2023-04-25T11:35:26.926Z,95652.84
2023-04-25T11:36:32.007Z,95649.38
2023-04-25T11:37:35.319Z,95651.81
2023-04-25T11:38:39.758Z,95651.69
2023-04-25T11:39:44.224Z,95654.28
2023-04-25T11:40:53.152Z,95654.16
2023-04-25T11:41:55.506Z,95651.47
2023-04-25T11:43:00.031Z,95651.56
2023-04-25T11:44:01.988Z,95648.59
2023-04-25T11:45:07.172Z,95656.19
2023-04-25T11:46:12.554Z,95650.94
2023-04-25T11:47:17.026Z,95653.09
2023-04-25T11:48:25.865Z,95656.25
2023-04-25T11:49:36.961Z,95656.72
2023-04-25T11:50:42.955Z,95664.38
2023-04-25T11:51:45.408Z,95663.53
2023-04-25T11:52:50.453Z,95661.88
2023-04-25T11:53:52.479Z,95659.19
2023-04-25T11:54:57.314Z,95665.59
2023-04-25T11:55:59.248Z,95660.31
2023-04-25T11:57:04.449Z,95661.63
2023-04-25T11:58:06.372Z,95668.78
2023-04-25T11:59:11.604Z,95664.91
2023-04-25T12:00:19.163Z,95672.19
2023-04-25T12:01:31.614Z,95672.72
2023-04-25T12:02:39.146Z,95677.44
2023-04-25T12:03:49.858Z,95675.88
2023-04-25T12:05:00.958Z,95666.78
2023-04-25T12:06:12.834Z,95674.38
2023-04-25T12:07:17.335Z,95667.84
2023-04-25T12:08:21.844Z,95668.69
2023-04-25T12:09:29.589Z,95671.59
2023-04-25T12:10:34.044Z,95662.66
2023-04-25T12:11:42.043Z,95666.66
2023-04-25T12:12:47.758Z,95665.44
2023-04-25T12:13:53.455Z,95671.31
2023-04-25T12:14:57.908Z,95664.59
2023-04-25T12:16:01.718Z,95670.66
2023-04-25T12:17:09.544Z,95669.16
2023-04-25T12:18:14.142Z,95666.84
2023-04-25T12:19:16.722Z,95674.66
2023-04-25T12:20:24.854Z,95669.28
2023-04-25T12:21:29.522Z,95665.53
2023-04-25T12:22:34.225Z,95672.81
2023-04-25T12:23:42.872Z,95676.94
2023-04-25T12:24:46.207Z,95669.03
2023-04-25T12:25:50.642Z,95667.50
2023-04-25T12:26:53.830Z,95672.97
2023-04-25T12:27:58.260Z,95678.09
2023-04-25T12:29:00.102Z,95673.41
2023-04-25T12:30:05.343Z,95669.09
2023-04-25T12:31:10.745Z,95669.16
2023-04-25T12:32:13.178Z,95660.66
2023-04-25T12:33:17.641Z,95671.19
2023-04-25T12:34:22.300Z,95658.78
2023-04-25T12:35:29.338Z,95675.84
2023-04-25T12:36:32.420Z,95670.13
2023-04-25T12:37:37.296Z,95675.69
2023-04-25T12:38:40.199Z,95679.44
2023-04-25T12:39:44.690Z,95674.44
2023-04-25T12:40:49.120Z,95677.66
2023-04-25T12:41:55.134Z,95673.81
2023-04-25T12:42:58.598Z,95673.28
2023-04-25T12:44:03.049Z,95678.94
2023-04-25T12:45:07.828Z,95685.44
2023-04-25T12:46:09.901Z,95681.22
2023-04-25T12:47:14.342Z,95674.97
2023-04-25T12:48:19.249Z,95673.16
2023-04-25T12:49:23.660Z,95676.75
2023-04-25T12:50:28.238Z,95681.75
2023-04-25T12:51:34.018Z,95679.03
2023-04-25T12:52:38.452Z,95679.94
2023-04-25T12:53:41.872Z,95677.19
2023-04-25T12:54:46.520Z,95685.81
2023-04-25T12:55:48.878Z,95683.91
2023-04-25T12:56:53.805Z,95682.88
2023-04-25T12:57:58.311Z,95688.72